createdAt,value
2019-04-04T00:00:08.916Z,15.95
2019-04-04T00:01:08.971Z,15.95
2019-04-04T00:03:01.991Z,15.95
2019-04-04T00:04:02.022Z,16.05
2019-04-04T00:05:56.595Z,15.67
2019-04-04T00:06:57.857Z,15.67
2019-04-04T00:08:48.087Z,15.67
2019-04-04T00:09:48.114Z,15.67
2019-04-04T00:11:41.098Z,15.39
2019-04-04T00:12:41.155Z,15.29
2019-04-04T00:14:34.186Z,15.29
2019-04-04T00:15:34.210Z,14.72
2019-04-04T00:17:27.189Z,14.72
2019-04-04T00:18:27.461Z,14.91
2019-04-04T00:20:20.244Z,15.48
2019-04-04T00:21:20.279Z,14.72
2019-04-04T00:23:13.266Z,14.91
2019-04-04T00:24:13.316Z,15.10
2019-04-04T00:26:06.319Z,15.20
2019-04-04T00:27:06.349Z,15.00
2019-04-04T00:29:01.356Z,15.20
2019-04-04T00:29:59.388Z,15.39
2019-04-04T00:31:52.393Z,15.20
2019-04-04T00:32:52.799Z,15.29
2019-04-04T00:34:45.411Z,15.48
2019-04-04T00:35:45.468Z,15.39
2019-04-04T00:37:40.979Z,15.58
2019-04-04T00:38:38.649Z,15.58
2019-04-04T00:40:31.507Z,15.67
2019-04-04T00:41:31.535Z,15.77
2019-04-04T00:43:24.526Z,15.77
2019-04-04T00:44:24.582Z,15.29
2019-04-04T00:46:17.557Z,15.29
2019-04-04T00:47:17.605Z,14.91
2019-04-04T00:49:10.613Z,15.29
2019-04-04T00:50:10.642Z,14.91
2019-04-04T00:52:03.631Z,15.48
2019-04-04T00:53:03.682Z,15.29
2019-04-04T00:54:56.683Z,15.77
2019-04-04T00:55:56.722Z,15.58
2019-04-04T00:57:50.323Z,15.58
2019-04-04T00:58:51.781Z,15.86
2019-04-04T01:00:42.774Z,15.58
2019-04-04T01:01:42.808Z,15.58
2019-04-04T01:03:36.301Z,15.29
2019-04-04T01:04:36.343Z,15.30
2019-04-04T01:06:29.354Z,15.87
2019-04-04T01:07:29.390Z,15.67
2019-04-04T01:09:22.372Z,15.67
2019-04-04T01:10:22.424Z,15.86
2019-04-04T01:12:15.434Z,16.53
2019-04-04T01:13:15.461Z,16.91
2019-04-04T01:15:08.436Z,16.33
2019-04-04T01:16:08.494Z,16.72
2019-04-04T01:18:01.492Z,17.00
2019-04-04T01:19:01.527Z,17.10
2019-04-04T01:20:54.518Z,17.57
2019-04-04T01:21:54.572Z,18.04
2019-04-04T01:23:47.594Z,17.57
2019-04-04T01:24:47.612Z,17.47
2019-04-04T01:26:40.590Z,17.19
2019-04-04T01:27:40.648Z,17.38
2019-04-04T01:29:33.660Z,17.38
2019-04-04T01:30:33.686Z,17.47
2019-04-04T01:32:26.663Z,17.47
2019-04-04T01:33:26.748Z,17.38
2019-04-04T01:35:22.451Z,17.10
2019-04-04T01:36:19.777Z,16.52
2019-04-04T01:38:12.754Z,16.62
2019-04-04T01:39:12.812Z,16.72
2019-04-04T01:41:05.811Z,17.00
2019-04-04T01:42:07.152Z,16.81
2019-04-04T01:44:04.881Z,16.81
2019-04-04T01:44:58.880Z,16.72
2019-04-04T01:46:51.860Z,16.52
2019-04-04T01:47:51.917Z,16.62
2019-04-04T01:49:44.915Z,16.72
2019-04-04T01:50:44.953Z,16.43
2019-04-04T01:52:37.964Z,16.91
2019-04-04T01:53:37.995Z,17.10
2019-04-04T01:55:30.973Z,17.66
2019-04-04T01:56:31.032Z,17.47
2019-04-04T01:58:24.040Z,17.10
2019-04-04T01:59:24.064Z,17.47
2019-04-04T02:01:17.146Z,17.85
2019-04-04T02:02:18.491Z,18.24
2019-04-04T02:04:10.669Z,18.04
2019-04-04T02:05:10.664Z,18.24
2019-04-04T02:07:03.652Z,18.52
2019-04-04T02:08:03.730Z,18.52
2019-04-04T02:09:56.725Z,18.43
2019-04-04T02:10:56.762Z,18.33
2019-04-04T02:12:49.746Z,18.04
2019-04-04T02:13:49.801Z,18.24
2019-04-04T02:15:44.671Z,18.24
2019-04-04T02:16:42.837Z,17.95
2019-04-04T02:18:35.812Z,18.62
2019-04-04T02:19:35.871Z,18.33
2019-04-04T02:21:29.264Z,18.51
2019-04-04T02:22:30.892Z,18.14
2019-04-04T02:24:21.887Z,17.85
2019-04-04T02:25:21.948Z,17.56
2019-04-04T02:27:14.954Z,17.18
2019-04-04T02:28:14.987Z,17.47
2019-04-04T02:30:07.963Z,17.37
2019-04-04T02:31:08.018Z,17.27
2019-04-04T02:33:01.046Z,17.47
2019-04-04T02:34:05.252Z,17.27
2019-04-04T02:35:54.045Z,17.56
2019-04-04T02:36:54.105Z,17.37
2019-04-04T02:38:47.100Z,17.56
2019-04-04T02:39:47.144Z,17.94
2019-04-04T02:41:40.140Z,18.04
2019-04-04T02:42:40.171Z,17.37
2019-04-04T02:44:33.286Z,17.37
2019-04-04T02:45:33.207Z,17.66
2019-04-04T02:47:26.210Z,17.47
2019-04-04T02:48:26.238Z,17.66
2019-04-04T02:50:19.252Z,16.71
2019-04-04T02:51:19.271Z,16.99
2019-04-04T02:53:12.278Z,16.71
2019-04-04T02:54:12.308Z,16.80
2019-04-04T02:56:05.341Z,16.99
2019-04-04T02:57:07.964Z,17.18
2019-04-04T02:58:58.398Z,17.27
2019-04-04T02:59:58.426Z,16.89
2019-04-04T03:01:51.398Z,17.47
2019-04-04T03:02:51.452Z,17.27
2019-04-04T03:04:46.816Z,17.94
2019-04-04T03:05:44.494Z,17.66
2019-04-04T03:07:38.001Z,17.66
2019-04-04T03:08:38.049Z,17.75
2019-04-04T03:10:31.061Z,17.75
2019-04-04T03:11:31.114Z,17.85
2019-04-04T03:13:24.121Z,18.13
2019-04-04T03:14:24.146Z,18.32
2019-04-04T03:16:21.050Z,18.13
2019-04-04T03:17:17.187Z,18.23
2019-04-04T03:19:11.151Z,18.12
2019-04-04T03:20:10.228Z,18.22
2019-04-04T03:22:03.222Z,18.31
2019-04-04T03:23:03.257Z,18.22
2019-04-04T03:24:56.261Z,18.04
2019-04-04T03:25:56.292Z,18.12
2019-04-04T03:27:49.262Z,18.41
2019-04-04T03:28:49.338Z,18.60
2019-04-04T03:30:42.345Z,18.98
2019-04-04T03:31:42.400Z,19.07
2019-04-04T03:33:35.384Z,18.88
2019-04-04T03:34:35.411Z,18.60
2019-04-04T03:36:30.740Z,18.41
2019-04-04T03:37:28.590Z,18.41
2019-04-04T03:39:21.557Z,18.41
2019-04-04T03:40:24.745Z,18.22
2019-04-04T03:42:14.608Z,18.31
2019-04-04T03:43:16.110Z,18.41
2019-04-04T03:45:08.178Z,18.22
2019-04-04T03:46:08.203Z,17.83
2019-04-04T03:48:01.259Z,17.65
2019-04-04T03:49:01.291Z,17.46
2019-04-04T03:50:57.014Z,17.36
2019-04-04T03:51:54.291Z,17.55
2019-04-04T03:53:49.412Z,17.36
2019-04-04T03:54:47.336Z,17.55
2019-04-04T03:56:40.840Z,17.93
2019-04-04T03:57:40.412Z,17.65
2019-04-04T03:59:33.463Z,18.02
2019-04-04T04:00:33.472Z,17.65
2019-04-04T04:02:26.450Z,18.12
2019-04-04T04:03:26.510Z,18.22
2019-04-04T04:05:22.067Z,18.69
2019-04-04T04:06:22.048Z,18.31
2019-04-04T04:08:15.062Z,18.98
2019-04-04T04:09:15.071Z,19.07
2019-04-04T04:11:08.058Z,19.64
2019-04-04T04:12:11.124Z,20.21
2019-04-04T04:14:01.107Z,20.31
2019-04-04T04:15:01.150Z,20.21
2019-04-04T04:16:55.115Z,19.64
2019-04-04T04:17:55.175Z,19.54
2019-04-04T04:19:48.183Z,19.54
2019-04-04T04:20:48.265Z,19.64
2019-04-04T04:22:41.263Z,19.45
2019-04-04T04:23:41.239Z,19.83
2019-04-04T04:25:36.462Z,20.21
2019-04-04T04:26:34.296Z,20.20
2019-04-04T04:28:27.293Z,20.02
2019-04-04T04:29:29.832Z,19.54
2019-04-04T04:31:20.378Z,19.73
2019-04-04T04:32:21.863Z,19.92
2019-04-04T04:34:13.397Z,19.73
2019-04-04T04:35:13.453Z,19.73
2019-04-04T04:37:06.462Z,20.21
2019-04-04T04:38:06.499Z,20.20
2019-04-04T04:39:59.486Z,19.54
2019-04-04T04:40:59.566Z,19.83
2019-04-04T04:42:52.549Z,19.54
2019-04-04T04:43:52.610Z,19.92
2019-04-04T04:45:45.593Z,19.34
2019-04-04T04:46:49.705Z,19.15
2019-04-04T04:48:38.692Z,18.49
2019-04-04T04:49:38.742Z,18.21
2019-04-04T04:51:31.741Z,18.11
2019-04-04T04:52:31.771Z,17.83
2019-04-04T04:54:24.754Z,17.64
2019-04-04T04:55:27.181Z,17.83
2019-04-04T04:57:29.562Z,17.73
2019-04-04T04:58:17.869Z,17.64
2019-04-04T05:00:10.876Z,17.92
2019-04-04T05:01:10.882Z,17.73
2019-04-04T05:03:03.880Z,18.49
2019-04-04T05:04:03.939Z,18.02
2019-04-04T05:05:57.418Z,18.50
2019-04-04T05:06:57.456Z,18.21
2019-04-04T05:08:50.450Z,18.40
2019-04-04T05:09:50.627Z,18.41
2019-04-04T05:11:43.510Z,18.11
2019-04-04T05:12:43.575Z,17.73
2019-04-04T05:14:36.544Z,17.55
2019-04-04T05:15:36.568Z,17.45
2019-04-04T05:17:29.553Z,17.27
2019-04-04T05:18:29.616Z,17.08
2019-04-04T05:20:23.107Z,17.08
2019-04-04T05:21:25.588Z,16.89
2019-04-04T05:23:16.303Z,17.17
2019-04-04T05:24:16.059Z,17.93
2019-04-04T05:26:09.767Z,18.22
2019-04-04T05:27:08.724Z,18.41
2019-04-04T05:29:01.708Z,19.07
2019-04-04T05:30:01.749Z,19.17
2019-04-04T05:31:54.734Z,19.92
2019-04-04T05:32:56.539Z,19.54
2019-04-04T05:34:47.780Z,20.11
2019-04-04T05:35:47.853Z,20.21
2019-04-04T05:37:40.826Z,19.64
2019-04-04T05:38:42.764Z,19.54
2019-04-04T05:40:33.836Z,20.02
2019-04-04T05:41:33.899Z,20.59
2019-04-04T05:43:26.895Z,20.87
2019-04-04T05:44:26.923Z,20.97
2019-04-04T05:46:19.909Z,20.87
2019-04-04T05:47:22.908Z,20.68
2019-04-04T05:49:13.019Z,20.50
2019-04-04T05:50:12.997Z,20.31
2019-04-04T05:52:08.851Z,19.45
2019-04-04T05:53:06.025Z,19.07
2019-04-04T05:54:59.026Z,19.08
2019-04-04T05:55:59.089Z,19.27
2019-04-04T05:57:52.055Z,18.41
2019-04-04T05:58:53.038Z,18.41
2019-04-04T06:00:45.077Z,18.70
2019-04-04T06:01:45.135Z,18.60
2019-04-04T06:03:38.158Z,18.23
2019-04-04T06:04:38.168Z,18.13
2019-04-04T06:06:33.311Z,18.32
2019-04-04T06:07:31.210Z,18.04
2019-04-04T06:09:24.190Z,18.23
2019-04-04T06:10:24.246Z,18.51
2019-04-04T06:12:17.241Z,18.41
2019-04-04T06:13:17.288Z,18.60
2019-04-04T06:15:10.287Z,18.60
2019-04-04T06:16:10.323Z,18.98
2019-04-04T06:18:03.320Z,19.27
2019-04-04T06:19:03.360Z,19.08
2019-04-04T06:20:56.896Z,19.37
2019-04-04T06:21:56.439Z,19.27
2019-04-04T06:23:49.403Z,19.74
2019-04-04T06:24:51.999Z,19.46
2019-04-04T06:26:42.430Z,19.46
2019-04-04T06:27:42.482Z,19.56
2019-04-04T06:29:35.464Z,19.74
2019-04-04T06:30:43.238Z,19.46
2019-04-04T06:32:29.093Z,19.27
2019-04-04T06:33:28.545Z,19.18
2019-04-04T06:35:21.521Z,18.89
2019-04-04T06:36:21.565Z,19.18
2019-04-04T06:38:14.570Z,18.98
2019-04-04T06:39:14.603Z,19.18
2019-04-04T06:41:08.114Z,19.08
2019-04-04T06:42:07.643Z,19.56
2019-04-04T06:44:00.639Z,19.74
2019-04-04T06:45:00.683Z,20.03
2019-04-04T06:46:54.220Z,19.74
2019-04-04T06:47:55.281Z,19.74
2019-04-04T06:49:46.721Z,19.56
2019-04-04T06:50:46.779Z,20.12
2019-04-04T06:52:39.773Z,19.56
2019-04-04T06:53:39.810Z,19.65
2019-04-04T06:55:32.818Z,19.76
2019-04-04T06:56:32.859Z,19.84
2019-04-04T06:58:25.840Z,19.65
2019-04-04T06:59:25.983Z,19.74
2019-04-04T07:01:21.075Z,19.76
2019-04-04T07:02:18.966Z,19.76
2019-04-04T07:04:11.953Z,19.47
2019-04-04T07:05:12.000Z,19.85
2019-04-04T07:07:04.969Z,19.56
2019-04-04T07:08:05.022Z,19.76
2019-04-04T07:09:58.023Z,19.76
2019-04-04T07:11:00.388Z,20.04
2019-04-04T07:12:51.067Z,19.66
2019-04-04T07:13:51.102Z,20.32
2019-04-04T07:15:48.331Z,20.51
2019-04-04T07:16:44.167Z,20.70
2019-04-04T07:18:37.616Z,20.80
2019-04-04T07:19:37.664Z,20.99
2019-04-04T07:21:30.704Z,21.28
2019-04-04T07:22:30.707Z,21.18
2019-04-04T07:24:23.684Z,21.08
2019-04-04T07:25:23.737Z,21.56
2019-04-04T07:27:16.871Z,21.56
2019-04-04T07:28:18.843Z,21.47
2019-04-04T07:30:09.770Z,21.56
2019-04-04T07:31:09.827Z,21.47
2019-04-04T07:33:02.825Z,21.66
2019-04-04T07:34:02.869Z,21.37
2019-04-04T07:35:55.866Z,21.28
2019-04-04T07:36:55.898Z,21.47
2019-04-04T07:38:48.904Z,21.18
2019-04-04T07:39:50.187Z,21.56
2019-04-04T07:41:44.995Z,21.76
2019-04-04T07:42:41.994Z,21.67
2019-04-04T07:44:34.967Z,22.33
2019-04-04T07:45:35.044Z,21.86
2019-04-04T07:47:28.075Z,22.71
2019-04-04T07:48:28.553Z,22.71
2019-04-04T07:50:21.078Z,22.71
2019-04-04T07:51:21.152Z,23.57
2019-04-04T07:53:14.188Z,22.61
2019-04-04T07:54:14.199Z,22.80
2019-04-04T07:56:07.161Z,22.42
2019-04-04T07:57:07.258Z,22.42
2019-04-04T07:59:00.223Z,22.42
2019-04-04T08:00:00.266Z,22.33
2019-04-04T08:01:53.256Z,21.86
2019-04-04T08:02:53.313Z,22.14
2019-04-04T08:04:46.314Z,22.52
2019-04-04T08:05:46.384Z,22.33
2019-04-04T08:07:39.406Z,22.52
2019-04-04T08:08:39.421Z,22.33
2019-04-04T08:10:32.397Z,21.76
2019-04-04T08:11:32.520Z,21.38
2019-04-04T08:13:25.465Z,21.47
2019-04-04T08:14:25.495Z,21.47
2019-04-04T08:16:18.494Z,21.47
2019-04-04T08:17:18.965Z,21.28
2019-04-04T08:19:11.522Z,21.38
2019-04-04T08:20:11.578Z,21.28
2019-04-04T08:22:04.707Z,21.09
2019-04-04T08:23:05.616Z,20.72
2019-04-04T08:24:57.613Z,21.09
2019-04-04T08:25:57.657Z,21.38
2019-04-04T08:27:50.669Z,21.09
2019-04-04T08:28:50.711Z,21.28
2019-04-04T08:30:43.729Z,20.72
2019-04-04T08:31:43.761Z,21.19
2019-04-04T08:33:36.772Z,21.28
2019-04-04T08:34:36.807Z,21.47
2019-04-04T08:36:29.831Z,21.38
2019-04-04T08:37:29.843Z,21.38
2019-04-04T08:39:22.845Z,21.57
2019-04-04T08:40:22.882Z,21.67
2019-04-04T08:42:15.859Z,21.19
2019-04-04T08:43:15.917Z,21.28
2019-04-04T08:45:09.419Z,21.86
2019-04-04T08:46:09.472Z,22.14
2019-04-04T08:48:02.452Z,22.71
2019-04-04T08:49:02.513Z,23.75
2019-04-04T08:50:55.498Z,24.71
2019-04-04T08:51:55.544Z,24.90
2019-04-04T08:53:48.549Z,24.90
2019-04-04T08:54:48.586Z,25.46
2019-04-04T08:56:41.582Z,25.85
2019-04-04T08:57:41.619Z,25.76
2019-04-04T08:59:34.639Z,25.38
2019-04-04T09:00:34.654Z,25.38
2019-04-04T09:02:27.716Z,25.48
2019-04-04T09:03:27.758Z,25.27
2019-04-04T09:05:21.246Z,25.10
2019-04-04T09:06:21.271Z,24.62
2019-04-04T09:08:14.777Z,24.62
2019-04-04T09:09:14.300Z,24.43
2019-04-04T09:11:07.298Z,24.62
2019-04-04T09:12:07.340Z,24.53
2019-04-04T09:14:00.350Z,25.67
2019-04-04T09:15:00.454Z,25.76
2019-04-04T09:16:53.887Z,26.05
2019-04-04T09:17:53.416Z,25.95
2019-04-04T09:19:46.400Z,26.24
2019-04-04T09:20:46.453Z,27.00
2019-04-04T09:22:40.887Z,28.42
2019-04-04T09:23:39.533Z,28.71
2019-04-04T09:25:32.620Z,29.38
2019-04-04T09:26:32.647Z,30.90
2019-04-04T09:28:25.668Z,30.52
2019-04-04T09:29:25.681Z,30.73
2019-04-04T09:31:18.681Z,32.14
2019-04-04T09:32:18.719Z,32.14
2019-04-04T09:34:11.719Z,31.68
2019-04-04T09:35:11.757Z,32.14
2019-04-04T09:37:04.759Z,34.80
2019-04-04T09:38:04.815Z,34.13
2019-04-04T09:39:57.797Z,34.23
2019-04-04T09:40:57.835Z,33.86
2019-04-04T09:42:50.851Z,33.37
2019-04-04T09:43:50.873Z,32.62
2019-04-04T09:45:43.852Z,32.15
2019-04-04T09:46:43.912Z,32.06
2019-04-04T09:48:36.916Z,36.43
2019-04-04T09:49:36.947Z,38.62
2019-04-04T09:51:29.963Z,39.57
2019-04-04T09:52:30.022Z,41.38
2019-04-04T09:54:22.996Z,39.57
2019-04-04T09:55:23.064Z,38.53
2019-04-04T09:57:16.026Z,37.76
2019-04-04T09:58:16.070Z,38.81
2019-04-04T10:00:09.065Z,41.00
2019-04-04T10:01:09.101Z,42.04
2019-04-04T10:03:02.122Z,40.14
2019-04-04T10:04:02.171Z,39.48
2019-04-04T10:05:55.692Z,38.43
2019-04-04T10:06:55.686Z,37.67
2019-04-04T10:08:48.687Z,36.53
2019-04-04T10:09:48.722Z,34.99
2019-04-04T10:11:41.729Z,33.58
2019-04-04T10:12:41.760Z,35.84
2019-04-04T10:14:34.738Z,40.41
2019-04-04T10:15:34.802Z,43.35
2019-04-04T10:17:27.804Z,43.64
2019-04-04T10:18:27.834Z,43.83
2019-04-04T10:20:20.863Z,41.46
2019-04-04T10:21:20.899Z,40.12
2019-04-04T10:23:13.922Z,37.18
2019-04-04T10:24:13.982Z,36.60
2019-04-04T10:26:06.968Z,36.98
2019-04-04T10:27:07.026Z,36.32
2019-04-04T10:29:00.021Z,35.84
2019-04-04T10:30:00.070Z,38.12
2019-04-04T10:31:53.068Z,36.98
2019-04-04T10:32:53.113Z,36.60
2019-04-04T10:34:46.126Z,40.50
2019-04-04T10:35:46.157Z,39.45
2019-04-04T10:37:39.243Z,38.70
2019-04-04T10:38:39.234Z,38.12
2019-04-04T10:40:32.229Z,37.65
2019-04-04T10:41:32.271Z,35.08
2019-04-04T10:43:25.315Z,34.05
2019-04-04T10:44:25.341Z,33.86
2019-04-04T10:46:18.341Z,35.00
2019-04-04T10:47:18.365Z,39.19
2019-04-04T10:49:11.352Z,42.04
2019-04-04T10:50:11.440Z,42.04
2019-04-04T10:52:04.464Z,39.38
2019-04-04T10:53:04.507Z,38.81
2019-04-04T10:54:57.544Z,38.34
2019-04-04T10:55:57.564Z,39.38
2019-04-04T10:57:50.556Z,42.04
2019-04-04T10:58:50.689Z,41.95
2019-04-04T11:00:43.584Z,44.71
2019-04-04T11:01:43.637Z,44.13
2019-04-04T11:03:36.703Z,46.04
2019-04-04T11:04:36.684Z,49.65
2019-04-04T11:06:29.702Z,47.75
2019-04-04T11:07:29.746Z,46.70
2019-04-04T11:09:22.738Z,45.09
2019-04-04T11:10:22.845Z,43.76
2019-04-04T11:12:15.797Z,39.57
2019-04-04T11:13:15.834Z,43.09
2019-04-04T11:15:08.851Z,47.47
2019-04-04T11:16:08.890Z,46.89
2019-04-04T11:18:01.915Z,45.37
2019-04-04T11:19:01.934Z,46.14
2019-04-04T11:20:54.967Z,47.66
2019-04-04T11:21:55.006Z,49.75
2019-04-04T11:23:47.994Z,51.37
2019-04-04T11:24:48.031Z,52.32
2019-04-04T11:26:41.079Z,48.92
2019-04-04T11:27:41.102Z,47.11
2019-04-04T11:29:34.131Z,47.58
2019-04-04T11:30:34.187Z,44.35
2019-04-04T11:32:27.168Z,45.30
2019-04-04T11:33:27.200Z,42.64
2019-04-04T11:35:20.256Z,44.64
2019-04-04T11:36:20.264Z,45.09
2019-04-04T11:38:13.275Z,45.18
2019-04-04T11:39:13.395Z,42.04
2019-04-04T11:41:06.365Z,40.62
2019-04-04T11:42:06.386Z,38.24
2019-04-04T11:43:59.378Z,38.24
2019-04-04T11:44:59.436Z,38.14
2019-04-04T11:46:52.429Z,37.29
2019-04-04T11:47:52.471Z,35.96
2019-04-04T11:49:45.491Z,33.48
2019-04-04T11:50:45.538Z,34.34
2019-04-04T11:52:38.550Z,34.44
2019-04-04T11:53:38.639Z,35.48
2019-04-04T11:55:31.600Z,33.20
2019-04-04T11:56:31.687Z,33.48
2019-04-04T11:58:24.670Z,34.63
2019-04-04T11:59:24.694Z,36.62
2019-04-04T12:01:17.747Z,36.72
2019-04-04T12:02:17.768Z,37.38
2019-04-04T12:04:10.759Z,37.95
2019-04-04T12:05:10.798Z,38.34
2019-04-04T12:07:03.824Z,38.90
2019-04-04T12:08:03.848Z,37.95
2019-04-04T12:10:06.685Z,35.38
2019-04-04T12:10:56.905Z,36.91
2019-04-04T12:12:49.975Z,37.86
2019-04-04T12:13:50.605Z,37.76
2019-04-04T12:15:42.993Z,36.91
2019-04-04T12:16:43.005Z,35.96
2019-04-04T12:18:36.095Z,36.33
2019-04-04T12:19:36.060Z,38.34
2019-04-04T12:21:29.081Z,37.29
2019-04-04T12:22:29.114Z,39.57
2019-04-04T12:24:22.132Z,39.86
2019-04-04T12:25:22.158Z,40.81
2019-04-04T12:27:15.229Z,40.81
2019-04-04T12:28:15.211Z,40.90
2019-04-04T12:30:08.254Z,41.28
2019-04-04T12:31:08.327Z,40.43
2019-04-04T12:33:01.364Z,41.59
2019-04-04T12:34:02.410Z,40.71
2019-04-04T12:35:54.387Z,41.59
2019-04-04T12:36:54.408Z,41.76
2019-04-04T12:38:47.437Z,46.14
2019-04-04T12:39:48.467Z,44.80
2019-04-04T12:41:40.488Z,42.90
2019-04-04T12:42:40.575Z,42.90
2019-04-04T12:44:33.561Z,43.38
2019-04-04T12:45:33.613Z,46.42
2019-04-04T12:47:26.655Z,45.66
2019-04-04T12:48:26.666Z,45.78
2019-04-04T12:50:19.671Z,43.59
2019-04-04T12:51:19.765Z,42.25
2019-04-04T12:53:12.774Z,42.83
2019-04-04T12:54:12.828Z,46.83
2019-04-04T12:56:05.776Z,46.83
2019-04-04T12:57:05.878Z,44.06
2019-04-04T12:58:58.899Z,46.63
2019-04-04T12:59:58.940Z,45.01
2019-04-04T13:01:51.888Z,45.01
2019-04-04T13:02:52.006Z,47.30
2019-04-04T13:04:45.025Z,44.06
2019-04-04T13:05:45.006Z,42.73
2019-04-04T13:07:38.017Z,46.73
2019-04-04T13:08:38.047Z,44.92
2019-04-04T13:10:33.224Z,42.73
2019-04-04T13:11:31.125Z,48.35
2019-04-04T13:13:24.131Z,45.11
2019-04-04T13:14:25.201Z,42.73
2019-04-04T13:16:17.227Z,42.64
2019-04-04T13:17:17.287Z,38.35
2019-04-04T13:19:10.255Z,41.97
2019-04-04T13:20:10.311Z,45.01
2019-04-04T13:22:15.946Z,43.30
2019-04-04T13:23:15.970Z,43.21
2019-04-04T13:25:08.974Z,45.97
2019-04-04T13:26:09.134Z,44.82
2019-04-04T13:28:02.075Z,45.21
2019-04-04T13:29:02.084Z,43.59
2019-04-04T13:30:55.091Z,45.30
2019-04-04T13:31:55.145Z,44.92
2019-04-04T13:33:48.153Z,45.49
2019-04-04T13:34:58.803Z,47.30
2019-04-04T13:36:41.268Z,48.42
2019-04-04T13:37:41.299Z,47.02
2019-04-04T13:39:34.232Z,42.90
2019-04-04T13:40:44.786Z,43.28
2019-04-04T13:42:27.323Z,43.97
2019-04-04T13:43:27.655Z,47.09
2019-04-04T13:45:20.369Z,44.61
2019-04-04T13:46:20.414Z,43.57
2019-04-04T13:48:13.482Z,41.38
2019-04-04T13:49:13.452Z,40.52
2019-04-04T13:51:06.475Z,36.53
2019-04-04T13:52:06.512Z,42.61
2019-04-04T13:53:59.574Z,44.90
2019-04-04T13:54:59.551Z,45.00
2019-04-04T13:56:52.582Z,42.43
2019-04-04T13:57:52.645Z,39.28
2019-04-04T13:59:45.630Z,37.95
2019-04-04T14:00:45.662Z,35.86
2019-04-04T14:02:38.678Z,38.05
2019-04-04T14:03:38.716Z,39.57
2019-04-04T14:05:31.736Z,41.00
2019-04-04T14:06:31.765Z,39.48
2019-04-04T14:08:24.824Z,40.23
2019-04-04T14:09:24.835Z,39.00
2019-04-04T14:11:17.973Z,39.86
2019-04-04T14:12:17.929Z,37.95
2019-04-04T14:15:25.286Z,41.83
2019-04-04T14:16:57.263Z,42.12
2019-04-04T14:17:57.400Z,40.59
2019-04-04T14:19:50.847Z,38.89
2019-04-04T14:21:02.952Z,38.31
2019-04-04T14:22:43.831Z,40.88
2019-04-04T14:23:45.262Z,40.22
2019-04-04T14:25:36.914Z,38.89
2019-04-04T14:26:36.997Z,38.89
2019-04-04T14:28:30.024Z,38.03
2019-04-04T14:29:29.993Z,37.46
2019-04-04T14:31:22.990Z,37.93
2019-04-04T14:32:23.071Z,37.08
2019-04-04T14:34:16.024Z,35.75
2019-04-04T14:35:17.041Z,36.79
2019-04-04T14:37:09.083Z,37.55
2019-04-04T14:38:09.113Z,36.79
2019-04-04T14:40:02.095Z,33.84
2019-04-04T14:41:11.208Z,34.32
2019-04-04T14:42:55.160Z,35.10
2019-04-04T14:43:55.212Z,36.98
2019-04-04T14:45:48.195Z,35.84
2019-04-04T14:46:48.308Z,36.62
2019-04-04T14:48:42.961Z,33.77
2019-04-04T14:49:43.063Z,33.20
2019-04-04T14:51:34.259Z,33.77
2019-04-04T14:52:34.298Z,34.34
2019-04-04T14:54:29.288Z,34.80
2019-04-04T14:55:27.349Z,33.96
2019-04-04T14:57:20.336Z,32.34
2019-04-04T14:58:20.393Z,32.72
2019-04-04T15:00:15.731Z,34.44
2019-04-04T15:01:13.428Z,33.48
2019-04-04T15:03:06.411Z,34.53
2019-04-04T15:04:06.468Z,33.58
2019-04-04T15:05:59.480Z,32.06
2019-04-04T15:06:59.515Z,31.39
2019-04-04T15:08:52.515Z,29.77
2019-04-04T15:09:52.543Z,29.77
2019-04-04T15:11:45.522Z,30.93
2019-04-04T15:12:45.584Z,30.93
2019-04-04T15:14:40.094Z,32.45
2019-04-04T15:15:40.130Z,33.69
2019-04-04T15:17:33.169Z,34.45
2019-04-04T15:18:33.205Z,33.97
2019-04-04T15:20:26.198Z,31.98
2019-04-04T15:21:26.270Z,33.86
2019-04-04T15:23:19.303Z,34.91
2019-04-04T15:24:19.352Z,35.48
2019-04-04T15:26:12.340Z,34.91
2019-04-04T15:27:12.378Z,36.05
2019-04-04T15:29:05.378Z,36.91
2019-04-04T15:30:05.414Z,36.62
2019-04-04T15:31:58.429Z,33.96
2019-04-04T15:32:58.546Z,35.37
2019-04-04T15:34:51.435Z,35.56
2019-04-04T15:35:51.493Z,36.04
2019-04-04T15:37:44.513Z,34.42
2019-04-04T15:38:44.551Z,33.84
2019-04-04T15:40:37.569Z,32.51
2019-04-04T15:41:37.674Z,31.47
2019-04-04T15:43:30.596Z,29.86
2019-04-04T15:44:30.635Z,30.44
2019-04-04T15:46:23.636Z,30.34
2019-04-04T15:47:23.669Z,30.99
2019-04-04T15:49:16.651Z,31.56
2019-04-04T15:50:16.706Z,32.04
2019-04-04T15:52:09.739Z,31.85
2019-04-04T15:53:09.769Z,32.51
2019-04-04T15:55:03.265Z,32.42
2019-04-04T15:56:03.308Z,33.58
2019-04-04T15:57:56.348Z,32.62
2019-04-04T15:58:56.353Z,31.39
2019-04-04T16:00:49.433Z,29.68
2019-04-04T16:01:49.484Z,29.30
2019-04-04T16:03:42.494Z,29.86
2019-04-04T16:04:42.538Z,30.91
2019-04-04T16:06:35.538Z,30.06
2019-04-04T16:07:35.570Z,29.77
2019-04-04T16:09:28.607Z,29.68
2019-04-04T16:10:28.619Z,28.63
2019-04-04T16:12:21.620Z,28.44
2019-04-04T16:13:21.658Z,28.53
2019-04-04T16:15:15.182Z,30.15
2019-04-04T16:16:15.204Z,29.49
2019-04-04T16:18:08.210Z,28.06
2019-04-04T16:19:08.233Z,29.30
2019-04-04T16:21:01.214Z,29.77
2019-04-04T16:22:01.278Z,29.96
2019-04-04T16:23:54.279Z,29.77
2019-04-04T16:24:54.317Z,29.77
2019-04-04T16:26:47.385Z,30.73
2019-04-04T16:27:48.325Z,31.68
2019-04-04T16:29:40.883Z,32.91
2019-04-04T16:30:40.943Z,32.91
2019-04-04T16:32:33.940Z,31.10
2019-04-04T16:33:33.968Z,31.66
2019-04-04T16:35:26.957Z,31.95
2019-04-04T16:36:27.002Z,30.90
2019-04-04T16:38:22.716Z,29.95
2019-04-04T16:39:20.077Z,30.04
2019-04-04T16:41:14.527Z,31.09
2019-04-04T16:42:13.095Z,30.80
2019-04-04T16:44:06.110Z,29.75
2019-04-04T16:45:07.484Z,29.47
2019-04-04T16:46:59.110Z,29.38
2019-04-04T16:47:59.168Z,29.66
2019-04-04T16:49:52.220Z,29.38
2019-04-04T16:50:52.247Z,28.90
2019-04-04T16:52:45.226Z,29.28
2019-04-04T16:53:45.312Z,28.90
2019-04-04T16:55:38.287Z,29.66
2019-04-04T16:56:38.324Z,30.04
2019-04-04T16:58:31.313Z,28.62
2019-04-04T16:59:31.389Z,28.52
2019-04-04T17:01:24.371Z,27.57
2019-04-04T17:02:24.392Z,27.19
2019-04-04T17:04:17.379Z,27.86
2019-04-04T17:05:17.434Z,28.14
2019-04-04T17:07:10.430Z,27.48
2019-04-04T17:08:10.471Z,27.19
2019-04-04T17:10:03.491Z,27.86
2019-04-04T17:11:03.505Z,27.76
2019-04-04T17:12:56.504Z,27.67
2019-04-04T17:13:56.543Z,27.48
2019-04-04T17:15:49.548Z,28.05
2019-04-04T17:16:49.590Z,28.52
2019-04-04T17:18:42.590Z,29.57
2019-04-04T17:19:42.622Z,29.38
2019-04-04T17:21:35.628Z,29.19
2019-04-04T17:22:35.664Z,29.47
2019-04-04T17:24:28.659Z,30.43
2019-04-04T17:25:28.702Z,30.23
2019-04-04T17:27:21.730Z,29.66
2019-04-04T17:28:21.800Z,29.75
2019-04-04T17:30:15.067Z,28.71
2019-04-04T17:31:14.834Z,28.14
2019-04-04T17:33:08.259Z,27.57
2019-04-04T17:34:07.858Z,27.56
2019-04-04T17:36:02.570Z,27.67
2019-04-04T17:37:02.434Z,27.67
2019-04-04T17:38:55.797Z,27.08
2019-04-04T17:39:54.876Z,26.51
2019-04-04T17:41:49.755Z,26.43
2019-04-04T17:42:47.911Z,26.62
2019-04-04T17:44:40.942Z,26.04
2019-04-04T17:45:40.966Z,25.76
2019-04-04T17:47:34.027Z,25.46
2019-04-04T17:48:33.994Z,25.65
2019-04-04T17:50:27.566Z,25.29
2019-04-04T17:51:27.362Z,24.80
2019-04-04T17:53:20.258Z,24.53
2019-04-04T17:54:20.088Z,24.53
2019-04-04T17:56:13.354Z,25.01
2019-04-04T17:57:13.120Z,25.48
2019-04-04T17:59:06.108Z,25.76
2019-04-04T18:00:06.156Z,25.76
2019-04-04T18:01:59.154Z,25.67
2019-04-04T18:02:59.186Z,25.67
2019-04-04T18:04:52.163Z,25.67
2019-04-04T18:05:52.219Z,25.57
2019-04-04T18:07:45.245Z,24.91
2019-04-04T18:08:45.263Z,24.81
2019-04-04T18:10:38.262Z,24.71
2019-04-04T18:11:38.294Z,24.81
2019-04-04T18:13:32.330Z,25.01
2019-04-04T18:14:31.328Z,24.61
2019-04-04T18:16:24.391Z,24.80
2019-04-04T18:17:24.369Z,24.62
2019-04-04T18:19:17.347Z,24.91
2019-04-04T18:20:17.471Z,24.81
2019-04-04T18:22:10.498Z,24.61
2019-04-04T18:23:10.471Z,24.53
2019-04-04T18:25:03.453Z,24.52
2019-04-04T18:26:03.511Z,24.13
2019-04-04T18:27:56.494Z,23.77
2019-04-04T18:28:56.531Z,23.66
2019-04-04T18:30:49.520Z,23.48
2019-04-04T18:31:49.577Z,23.58
2019-04-04T18:33:42.638Z,23.67
2019-04-04T18:34:43.017Z,23.85